createdAt,value
2017-02-19T00:01:08.873Z,1012.71
2017-02-19T00:02:18.712Z,1012.74
2017-02-19T00:03:28.925Z,1012.71
2017-02-19T00:04:38.690Z,1012.71
2017-02-19T00:05:48.003Z,1012.76
2017-02-19T00:06:58.192Z,1012.75
2017-02-19T00:08:08.425Z,1012.72
2017-02-19T00:09:17.748Z,1012.74
2017-02-19T00:10:27.062Z,1012.71
2017-02-19T00:11:37.253Z,1012.7
2017-02-19T00:12:47.023Z,1012.68
2017-02-19T00:13:56.851Z,1012.68
2017-02-19T00:15:07.050Z,1012.68
2017-02-19T00:16:17.279Z,1012.66
2017-02-19T00:17:27.043Z,1012.65
2017-02-19T00:18:36.802Z,1012.66
2017-02-19T00:19:46.615Z,1012.6
2017-02-19T00:20:55.960Z,1012.6
2017-02-19T00:22:05.740Z,1012.54
2017-02-19T00:23:15.498Z,1012.51
2017-02-19T00:24:25.244Z,1012.5
2017-02-19T00:25:35.083Z,1012.51
2017-02-19T00:26:44.857Z,1012.5
2017-02-19T00:27:54.171Z,1012.49
2017-02-19T00:29:03.926Z,1012.46
2017-02-19T00:30:13.684Z,1012.44
2017-02-19T00:31:23.521Z,1012.45
2017-02-19T00:32:33.730Z,1012.42
2017-02-19T00:33:43.073Z,1012.44
2017-02-19T00:34:53.726Z,1012.41
2017-02-19T00:36:03.478Z,1012.41
2017-02-19T00:37:13.731Z,1012.4
2017-02-19T00:38:23.493Z,1012.38
2017-02-19T00:39:33.674Z,1012.34
2017-02-19T00:40:43.438Z,1012.35
2017-02-19T00:41:53.637Z,1012.31
2017-02-19T00:43:03.866Z,1012.3
2017-02-19T00:44:14.046Z,1012.27
2017-02-19T00:45:24.227Z,1012.27
2017-02-19T00:46:34.412Z,1012.28
2017-02-19T00:47:43.734Z,1012.27
2017-02-19T00:48:53.086Z,1012.25
2017-02-19T00:50:02.849Z,1012.19
2017-02-19T00:51:12.162Z,1012.19
2017-02-19T00:52:22.343Z,1012.15
2017-02-19T00:53:31.675Z,1012.16
2017-02-19T00:54:41.902Z,1012.17
2017-02-19T00:55:51.222Z,1012.18
2017-02-19T00:57:00.970Z,1012.18
2017-02-19T00:58:11.183Z,1012.17
2017-02-19T00:59:20.957Z,1012.2
2017-02-19T01:00:30.323Z,1012.2
2017-02-19T01:01:39.672Z,1012.18
2017-02-19T01:02:49.428Z,1012.17
2017-02-19T01:03:58.745Z,1012.17
2017-02-19T01:05:09.376Z,1012.14
2017-02-19T01:06:20.076Z,1012.22
2017-02-19T01:07:30.710Z,1012.17
2017-02-19T01:08:40.886Z,1012.17
2017-02-19T01:09:50.635Z,1012.14
2017-02-19T01:11:00.377Z,1012.13
2017-02-19T01:12:09.770Z,1012.13
2017-02-19T01:13:19.530Z,1012.11
2017-02-19T01:14:29.726Z,1012.05
2017-02-19T01:15:39.053Z,1012.05
2017-02-19T01:16:49.258Z,1012.05
2017-02-19T01:17:59.493Z,1012.04
2017-02-19T01:19:09.237Z,1012.07
2017-02-19T01:20:19.422Z,1012.04
2017-02-19T01:21:28.763Z,1012.02
2017-02-19T01:22:38.512Z,1012.02
2017-02-19T01:23:47.901Z,1012.01
2017-02-19T01:24:57.650Z,1011.89
2017-02-19T01:26:07.860Z,1011.88
2017-02-19T01:27:17.617Z,1011.87
2017-02-19T01:28:27.370Z,1011.83
2017-02-19T01:29:37.627Z,1011.78
2017-02-19T01:30:47.825Z,1011.77
2017-02-19T01:31:57.139Z,1011.77
2017-02-19T01:33:06.459Z,1011.76
2017-02-19T01:34:16.213Z,1011.75
2017-02-19T01:35:26.446Z,1011.74
2017-02-19T01:36:36.186Z,1011.76
2017-02-19T01:37:45.975Z,1011.74
2017-02-19T01:38:57.048Z,1011.69
2017-02-19T01:40:07.698Z,1011.71
2017-02-19T01:41:17.963Z,1011.66
2017-02-19T01:42:28.156Z,1011.64
2017-02-19T01:43:37.467Z,1011.64
2017-02-19T01:44:47.228Z,1011.58
2017-02-19T01:45:57.421Z,1011.57
2017-02-19T01:47:07.225Z,1011.56
2017-02-19T01:48:17.835Z,1011.53
2017-02-19T01:49:28.495Z,1011.52
2017-02-19T01:50:38.684Z,1011.53
2017-02-19T01:51:48.430Z,1011.51
2017-02-19T01:52:59.260Z,1011.46
2017-02-19T01:54:09.013Z,1011.5
2017-02-19T01:55:19.624Z,1011.5
2017-02-19T01:56:28.958Z,1011.45
2017-02-19T01:57:38.795Z,1011.48
2017-02-19T01:58:48.733Z,1011.4
2017-02-19T01:59:58.499Z,1011.38
2017-02-19T02:01:08.267Z,1011.41
2017-02-19T02:02:18.026Z,1011.36
2017-02-19T02:03:27.361Z,1011.35
2017-02-19T02:04:37.626Z,1011.38
2017-02-19T02:05:47.372Z,1011.39
2017-02-19T02:06:57.589Z,1011.37
2017-02-19T02:08:07.354Z,1011.4
2017-02-19T02:09:17.095Z,1011.38
2017-02-19T02:10:26.890Z,1011.4
2017-02-19T02:11:36.214Z,1011.45
2017-02-19T02:12:46.436Z,1011.38
2017-02-19T02:13:56.205Z,1011.41
2017-02-19T02:15:05.521Z,1011.42
2017-02-19T02:16:14.898Z,1011.34
2017-02-19T02:17:25.085Z,1011.29
2017-02-19T02:18:35.257Z,1011.24
2017-02-19T02:19:45.457Z,1011.23
2017-02-19T02:20:55.246Z,1011.23
2017-02-19T02:22:05.484Z,1011.2
2017-02-19T02:23:15.262Z,1011.19
2017-02-19T02:24:24.570Z,1011.15
2017-02-19T02:25:34.323Z,1011.12
2017-02-19T02:26:44.543Z,1011.19
2017-02-19T02:27:54.354Z,1011.23
2017-02-19T02:29:04.544Z,1011.23
2017-02-19T02:30:14.308Z,1011.13
2017-02-19T02:31:24.073Z,1011.08
2017-02-19T02:32:34.732Z,1011.2
2017-02-19T02:33:44.518Z,1011.15
2017-02-19T02:34:53.847Z,1011.17
2017-02-19T02:36:03.610Z,1011.17
2017-02-19T02:37:13.371Z,1011.19
2017-02-19T02:38:23.114Z,1011.19
2017-02-19T02:39:33.789Z,1011.22
2017-02-19T02:40:43.531Z,1011.22
2017-02-19T02:41:53.281Z,1011.14
2017-02-19T02:43:03.481Z,1011.23
2017-02-19T02:44:13.242Z,1011.25
2017-02-19T02:45:23.079Z,1011.23
2017-02-19T02:46:33.271Z,1011.25
2017-02-19T02:47:43.481Z,1011.26
2017-02-19T02:48:53.299Z,1011.23
2017-02-19T02:50:03.047Z,1011.22
2017-02-19T02:51:13.001Z,1011.2
2017-02-19T02:52:22.758Z,1011.2
2017-02-19T02:53:32.072Z,1011.19
2017-02-19T02:54:43.127Z,1011.08
2017-02-19T02:55:53.320Z,1011.17
2017-02-19T02:57:02.729Z,1011.07
2017-02-19T02:58:12.921Z,1011.09
2017-02-19T02:59:22.234Z,1011.1
2017-02-19T03:00:32.431Z,1011.06
2017-02-19T03:01:41.740Z,1011.08
2017-02-19T03:02:51.547Z,1011.03
2017-02-19T03:04:00.853Z,1011.01
2017-02-19T03:05:10.587Z,1011.09
2017-02-19T03:06:20.340Z,1011.07
2017-02-19T03:07:30.979Z,1011.06
2017-02-19T03:08:40.341Z,1011.03
2017-02-19T03:09:49.666Z,1011.03
2017-02-19T03:10:59.007Z,1011.05
2017-02-19T03:12:08.315Z,1011.07
2017-02-19T03:13:18.080Z,1011.07
2017-02-19T03:14:27.547Z,1011.02
2017-02-19T03:15:37.340Z,1011.03
2017-02-19T03:16:47.092Z,1010.99
2017-02-19T03:17:56.422Z,1010.97
2017-02-19T03:19:05.746Z,1010.99
2017-02-19T03:20:15.541Z,1010.94
2017-02-19T03:21:25.714Z,1010.93
2017-02-19T03:22:35.894Z,1010.92
2017-02-19T03:23:45.644Z,1010.92
2017-02-19T03:24:56.297Z,1010.84
2017-02-19T03:26:05.675Z,1010.85
2017-02-19T03:27:14.994Z,1010.85
2017-02-19T03:28:25.219Z,1010.79
2017-02-19T03:29:35.868Z,1010.77
2017-02-19T03:30:45.639Z,1010.76
2017-02-19T03:31:55.115Z,1010.73
2017-02-19T03:33:04.452Z,1010.73
2017-02-19T03:34:14.665Z,1010.74
2017-02-19T03:35:24.428Z,1010.74
2017-02-19T03:36:33.735Z,1010.72
2017-02-19T03:37:43.538Z,1010.7
2017-02-19T03:38:53.294Z,1010.68
2017-02-19T03:40:03.052Z,1010.63
2017-02-19T03:41:13.256Z,1010.64
2017-02-19T03:42:22.597Z,1010.68
2017-02-19T03:43:31.958Z,1010.66
2017-02-19T03:44:42.188Z,1010.64
2017-02-19T03:45:51.950Z,1010.65
2017-02-19T03:47:02.594Z,1010.64
2017-02-19T03:48:12.347Z,1010.61
2017-02-19T03:49:22.588Z,1010.62
2017-02-19T03:50:31.931Z,1010.56
2017-02-19T03:51:41.685Z,1010.56
2017-02-19T03:52:51.001Z,1010.54
2017-02-19T03:54:00.774Z,1010.53
2017-02-19T03:55:11.466Z,1010.54
2017-02-19T03:56:21.217Z,1010.57
2017-02-19T03:57:30.997Z,1010.57
2017-02-19T03:58:40.742Z,1010.55
2017-02-19T03:59:50.947Z,1010.57
2017-02-19T04:01:00.335Z,1010.57
2017-02-19T04:02:10.115Z,1010.54
2017-02-19T04:03:19.895Z,1010.58
2017-02-19T04:04:29.686Z,1010.6
2017-02-19T04:05:38.995Z,1010.59
2017-02-19T04:06:48.827Z,1010.6
2017-02-19T04:07:58.579Z,1010.61
2017-02-19T04:09:08.333Z,1010.58
2017-02-19T04:10:17.670Z,1010.58
2017-02-19T04:11:28.759Z,1010.48
2017-02-19T04:12:38.634Z,1010.47
2017-02-19T04:13:47.957Z,1010.45
2017-02-19T04:14:57.700Z,1010.45
2017-02-19T04:16:07.009Z,1010.45
2017-02-19T04:17:16.769Z,1010.42
2017-02-19T04:18:26.574Z,1010.4
2017-02-19T04:19:36.344Z,1010.4
2017-02-19T04:20:45.662Z,1010.34
2017-02-19T04:21:54.989Z,1010.3
2017-02-19T04:23:04.315Z,1010.35
2017-02-19T04:24:14.572Z,1010.33
2017-02-19T04:25:23.877Z,1010.39
2017-02-19T04:26:34.118Z,1010.34
2017-02-19T04:27:44.323Z,1010.31
2017-02-19T04:28:54.090Z,1010.27
2017-02-19T04:30:03.486Z,1010.27
2017-02-19T04:31:13.703Z,1010.25
2017-02-19T04:32:23.892Z,1010.22
2017-02-19T04:33:33.211Z,1010.19
2017-02-19T04:34:42.963Z,1010.22
2017-02-19T04:35:52.325Z,1010.22
2017-02-19T04:37:01.641Z,1010.17
2017-02-19T04:38:11.835Z,1010.22
2017-02-19T04:39:21.581Z,1010.19
2017-02-19T04:40:31.812Z,1010.23
2017-02-19T04:41:41.650Z,1010.21
2017-02-19T04:42:52.283Z,1010.19
2017-02-19T04:44:02.922Z,1010.19
2017-02-19T04:45:12.691Z,1010.22
2017-02-19T04:46:22.003Z,1010.17
2017-02-19T04:47:31.825Z,1010.17
2017-02-19T04:48:42.018Z,1010.17
2017-02-19T04:49:52.642Z,1010.13
2017-02-19T04:51:02.827Z,1010.14
2017-02-19T04:52:13.020Z,1010.1
2017-02-19T04:53:22.393Z,1010.12
2017-02-19T04:54:31.731Z,1010.1
2017-02-19T04:55:42.801Z,1010.08
2017-02-19T04:56:52.547Z,1010.08
2017-02-19T04:58:02.306Z,1010.08
2017-02-19T04:59:12.543Z,1010.02
2017-02-19T05:00:22.741Z,1010.02
2017-02-19T05:01:32.506Z,1009.98
2017-02-19T05:02:43.143Z,1009.94
2017-02-19T05:03:52.468Z,1009.97
2017-02-19T05:05:03.151Z,1009.92
2017-02-19T05:06:12.458Z,1009.85
2017-02-19T05:07:22.201Z,1009.83
2017-02-19T05:08:31.519Z,1009.76
2017-02-19T05:09:41.268Z,1009.73
2017-02-19T05:10:50.631Z,1009.7
2017-02-19T05:12:00.820Z,1009.68
2017-02-19T05:13:11.451Z,1009.63
2017-02-19T05:14:21.665Z,1009.61
2017-02-19T05:15:31.024Z,1009.55
2017-02-19T05:16:40.855Z,1009.6
2017-02-19T05:17:50.180Z,1009.62
2017-02-19T05:18:59.513Z,1009.55
2017-02-19T05:20:09.294Z,1009.56
2017-02-19T05:21:19.504Z,1009.54
2017-02-19T05:22:29.307Z,1009.45
2017-02-19T05:23:39.512Z,1009.44
2017-02-19T05:24:49.737Z,1009.49
2017-02-19T05:25:59.551Z,1009.52
2017-02-19T05:27:08.880Z,1009.51
2017-02-19T05:28:18.677Z,1009.54
2017-02-19T05:29:28.866Z,1009.56
2017-02-19T05:30:38.611Z,1009.58
2017-02-19T05:31:47.968Z,1009.59
2017-02-19T05:32:58.157Z,1009.62
2017-02-19T05:34:09.265Z,1009.6
2017-02-19T05:35:18.572Z,1009.66
2017-02-19T05:36:28.761Z,1009.63
2017-02-19T05:37:39.398Z,1009.65
2017-02-19T05:38:50.038Z,1009.62
2017-02-19T05:40:00.061Z,1009.66
2017-02-19T05:41:10.270Z,1009.64
2017-02-19T05:42:19.607Z,1009.56
2017-02-19T05:43:29.800Z,1009.53
2017-02-19T05:44:39.553Z,1009.53
2017-02-19T05:45:49.359Z,1009.52
2017-02-19T05:46:59.540Z,1009.54
2017-02-19T05:48:09.295Z,1009.55
2017-02-19T05:49:18.646Z,1009.5
2017-02-19T05:50:28.836Z,1009.51
2017-02-19T05:51:38.696Z,1009.57
2017-02-19T05:52:48.450Z,1009.48
2017-02-19T05:53:57.779Z,1009.49
2017-02-19T05:55:07.990Z,1009.5
2017-02-19T05:56:18.203Z,1009.48
2017-02-19T05:57:28.028Z,1009.46
2017-02-19T05:58:37.340Z,1009.46
2017-02-19T05:59:47.085Z,1009.4
2017-02-19T06:00:57.291Z,1009.36
2017-02-19T06:02:07.053Z,1009.35
2017-02-19T06:03:17.321Z,1009.31
2017-02-19T06:04:26.631Z,1009.32
2017-02-19T06:05:36.379Z,1009.35
2017-02-19T06:06:45.704Z,1009.39
2017-02-19T06:07:55.909Z,1009.35
2017-02-19T06:09:05.702Z,1009.38
2017-02-19T06:10:15.895Z,1009.3
2017-02-19T06:11:26.544Z,1009.25
2017-02-19T06:12:36.322Z,1009.24
2017-02-19T06:13:46.519Z,1009.26
2017-02-19T06:14:56.344Z,1009.26
2017-02-19T06:16:06.533Z,1009.24
2017-02-19T06:17:16.283Z,1009.25
2017-02-19T06:18:26.032Z,1009.24
2017-02-19T06:19:36.252Z,1009.27
2017-02-19T06:20:46.090Z,1009.2
2017-02-19T06:21:55.423Z,1009.22
2017-02-19T06:23:05.168Z,1009.24
2017-02-19T06:24:15.394Z,1009.22
2017-02-19T06:25:25.591Z,1009.21
2017-02-19T06:26:35.412Z,1009.28
2017-02-19T06:27:45.597Z,1009.21
2017-02-19T06:28:56.228Z,1009.17
2017-02-19T06:30:05.981Z,1009.19
2017-02-19T06:31:15.313Z,1009.16
2017-02-19T06:32:25.572Z,1009.22
2017-02-19T06:33:35.331Z,1009.21
2017-02-19T06:34:45.088Z,1009.16
2017-02-19T06:35:54.847Z,1009.12
2017-02-19T06:37:05.039Z,1009.13
2017-02-19T06:38:15.284Z,1009.08
2017-02-19T06:39:25.467Z,1009.06
2017-02-19T06:40:34.802Z,1009.09
2017-02-19T06:41:45.027Z,1009.11
2017-02-19T06:42:54.797Z,1009.07
2017-02-19T06:44:05.051Z,1009.12
2017-02-19T06:45:14.799Z,1009.14
2017-02-19T06:46:24.120Z,1009.14
2017-02-19T06:47:33.462Z,1009.13
2017-02-19T06:48:43.719Z,1009.09
2017-02-19T06:49:53.520Z,1009.08
2017-02-19T06:51:03.725Z,1009.11
2017-02-19T06:52:13.918Z,1009.12
2017-02-19T06:53:23.672Z,1009.13
2017-02-19T06:54:33.856Z,1009.13
2017-02-19T06:55:44.133Z,1009.12
2017-02-19T06:56:53.507Z,1009.07
2017-02-19T06:58:03.712Z,1009.09
2017-02-19T06:59:14.330Z,1009.16
2017-02-19T07:00:24.519Z,1009.17
2017-02-19T07:01:34.323Z,1009.22
2017-02-19T07:02:44.525Z,1009.21
2017-02-19T07:03:53.850Z,1009.21
2017-02-19T07:05:04.065Z,1009.18
2017-02-19T07:06:13.389Z,1009.2
2017-02-19T07:07:23.641Z,1009.16
2017-02-19T07:08:33.412Z,1009.15
2017-02-19T07:09:43.597Z,1009.15
2017-02-19T07:10:52.909Z,1009.17
2017-02-19T07:12:02.658Z,1009.11
2017-02-19T07:13:12.895Z,1009.18
2017-02-19T07:14:23.518Z,1009.13
2017-02-19T07:15:32.841Z,1009.08
2017-02-19T07:16:42.155Z,1009.07
2017-02-19T07:17:51.912Z,1009.11
2017-02-19T07:19:02.586Z,1009.13
2017-02-19T07:20:12.327Z,1009.09
2017-02-19T07:21:21.639Z,1009.1
2017-02-19T07:22:31.865Z,1009.12
2017-02-19T07:23:41.623Z,1009.15
2017-02-19T07:24:52.742Z,1009.14
2017-02-19T07:26:02.514Z,1009.09
2017-02-19T07:27:11.857Z,1009.13
2017-02-19T07:28:21.172Z,1009.07
2017-02-19T07:29:30.920Z,1009.1
2017-02-19T07:30:40.736Z,1009.13
2017-02-19T07:31:50.067Z,1009.14
2017-02-19T07:32:59.823Z,1009.14
2017-02-19T07:34:10.020Z,1009.15
2017-02-19T07:35:20.221Z,1009.14
2017-02-19T07:36:30.023Z,1009.16
2017-02-19T07:37:39.816Z,1009.21
2017-02-19T07:38:49.178Z,1009.22
2017-02-19T07:39:58.938Z,1009.16
2017-02-19T07:41:09.569Z,1009.17
2017-02-19T07:42:19.361Z,1009.14
2017-02-19T07:43:29.553Z,1009.17
2017-02-19T07:44:39.328Z,1009.11
2017-02-19T07:45:49.527Z,1009.12
2017-02-19T07:46:59.301Z,1009.12
2017-02-19T07:48:08.662Z,1009.13
2017-02-19T07:49:18.441Z,1009.11
2017-02-19T07:50:28.220Z,1009.21
2017-02-19T07:51:38.407Z,1009.16
2017-02-19T07:52:47.719Z,1009.2
2017-02-19T07:53:57.532Z,1009.19
2017-02-19T07:55:07.282Z,1009.14
2017-02-19T07:56:17.030Z,1009.09
2017-02-19T07:57:26.781Z,1009.07
2017-02-19T07:58:36.121Z,1009.03
2017-02-19T07:59:46.374Z,1009.07
2017-02-19T08:00:56.131Z,1009.03
2017-02-19T08:02:06.324Z,1009.02
2017-02-19T08:03:16.106Z,1008.98
2017-02-19T08:04:25.859Z,1009.06
2017-02-19T08:05:35.676Z,1009.01
2017-02-19T08:06:45.453Z,1008.99
2017-02-19T08:07:56.080Z,1008.97
2017-02-19T08:09:05.829Z,1008.97
2017-02-19T08:10:15.585Z,1009
2017-02-19T08:11:25.403Z,1009
2017-02-19T08:12:34.711Z,1009
2017-02-19T08:13:44.468Z,1008.99
2017-02-19T08:14:53.803Z,1008.99
2017-02-19T08:16:03.544Z,1008.9
2017-02-19T08:17:13.504Z,1008.98
2017-02-19T08:18:24.144Z,1008.93
2017-02-19T08:19:33.474Z,1008.96
2017-02-19T08:20:43.241Z,1009.02
2017-02-19T08:21:53.445Z,1008.99
2017-02-19T08:23:03.695Z,1008.96
2017-02-19T08:24:13.015Z,1008.97
2017-02-19T08:25:22.780Z,1008.96
2017-02-19T08:26:32.543Z,1008.97
2017-02-19T08:27:42.343Z,1008.94
2017-02-19T08:28:52.147Z,1008.88
2017-02-19T08:30:01.894Z,1008.85
2017-02-19T08:31:11.670Z,1008.87
2017-02-19T08:32:21.423Z,1008.83
2017-02-19T08:33:31.165Z,1008.81
2017-02-19T08:34:41.073Z,1008.81
2017-02-19T08:35:51.262Z,1008.85
2017-02-19T08:37:01.008Z,1008.79
2017-02-19T08:38:10.769Z,1008.82
2017-02-19T08:39:20.506Z,1008.8
2017-02-19T08:40:30.749Z,1008.83
2017-02-19T08:41:40.500Z,1008.82
2017-02-19T08:42:50.263Z,1008.78
2017-02-19T08:44:00.027Z,1008.71
2017-02-19T08:45:10.252Z,1008.72
2017-02-19T08:46:19.611Z,1008.7
2017-02-19T08:47:28.936Z,1008.73
2017-02-19T08:48:38.283Z,1008.69
2017-02-19T08:49:47.597Z,1008.75
2017-02-19T08:50:57.347Z,1008.66
2017-02-19T08:52:07.171Z,1008.6
2017-02-19T08:53:16.917Z,1008.58
2017-02-19T08:54:27.128Z,1008.5
2017-02-19T08:55:36.451Z,1008.47
2017-02-19T08:56:46.637Z,1008.53
2017-02-19T08:57:56.863Z,1008.46
2017-02-19T08:59:06.170Z,1008.54
2017-02-19T09:00:16.365Z,1008.56
2017-02-19T09:01:26.122Z,1008.52
2017-02-19T09:02:35.438Z,1008.54
2017-02-19T09:03:45.708Z,1008.55
2017-02-19T09:04:55.468Z,1008.48
2017-02-19T09:06:06.099Z,1008.55
2017-02-19T09:07:15.420Z,1008.53
2017-02-19T09:08:25.608Z,1008.54
2017-02-19T09:09:35.439Z,1008.46
2017-02-19T09:10:44.779Z,1008.48
2017-02-19T09:11:54.533Z,1008.5
2017-02-19T09:13:04.324Z,1008.49
2017-02-19T09:14:14.962Z,1008.53
2017-02-19T09:15:25.223Z,1008.51
2017-02-19T09:16:34.992Z,1008.46
2017-02-19T09:17:44.793Z,1008.52
2017-02-19T09:18:54.566Z,1008.5
2017-02-19T09:20:04.752Z,1008.51
2017-02-19T09:21:15.002Z,1008.51
2017-02-19T09:22:24.331Z,1008.5
2017-02-19T09:23:33.659Z,1008.5
2017-02-19T09:24:43.412Z,1008.48
2017-02-19T09:25:53.173Z,1008.55
2017-02-19T09:27:03.495Z,1008.56
2017-02-19T09:28:12.808Z,1008.59
2017-02-19T09:29:22.581Z,1008.59
2017-02-19T09:30:32.776Z,1008.57
2017-02-19T09:31:42.963Z,1008.58
2017-02-19T09:32:53.226Z,1008.56
2017-02-19T09:34:03.402Z,1008.59
2017-02-19T09:35:14.039Z,1008.6
2017-02-19T09:36:24.234Z,1008.62
2017-02-19T09:37:33.997Z,1008.62
2017-02-19T09:38:44.247Z,1008.64
2017-02-19T09:39:54.913Z,1008.66
2017-02-19T09:41:04.667Z,1008.62
2017-02-19T09:42:13.990Z,1008.65
2017-02-19T09:43:24.183Z,1008.59
2017-02-19T09:44:34.004Z,1008.59
2017-02-19T09:45:44.206Z,1008.53
2017-02-19T09:46:54.415Z,1008.55
2017-02-19T09:48:04.606Z,1008.57
2017-02-19T09:49:13.915Z,1008.53
2017-02-19T09:50:23.708Z,1008.48
2017-02-19T09:51:33.033Z,1008.48
2017-02-19T09:52:42.370Z,1008.5
2017-02-19T09:53:51.702Z,1008.49
2017-02-19T09:55:01.461Z,1008.42
2017-02-19T09:56:11.713Z,1008.34
2017-02-19T09:57:21.475Z,1008.29
2017-02-19T09:58:30.802Z,1008.28
2017-02-19T09:59:40.112Z,1008.31
2017-02-19T10:00:49.869Z,1008.26
2017-02-19T10:01:59.680Z,1008.23
2017-02-19T10:03:08.987Z,1008.2
2017-02-19T10:04:18.309Z,1008.19
2017-02-19T10:05:28.065Z,1008.26
2017-02-19T10:06:37.817Z,1008.23
2017-02-19T10:07:47.630Z,1008.26
2017-02-19T10:08:57.401Z,1008.27
2017-02-19T10:10:07.170Z,1008.22
2017-02-19T10:11:16.928Z,1008.23
2017-02-19T10:12:26.252Z,1008.2
2017-02-19T10:13:36.066Z,1008.18
2017-02-19T10:14:45.377Z,1008.2
2017-02-19T10:15:55.144Z,1008.19
2017-02-19T10:17:04.453Z,1008.21
2017-02-19T10:18:13.783Z,1008.12
2017-02-19T10:19:23.164Z,1008.23
2017-02-19T10:20:33.345Z,1008.23
2017-02-19T10:21:43.107Z,1008.21
2017-02-19T10:22:52.855Z,1008.27
2017-02-19T10:24:03.924Z,1008.23
2017-02-19T10:25:13.717Z,1008.2
2017-02-19T10:26:23.080Z,1008.26
2017-02-19T10:27:32.849Z,1008.26
2017-02-19T10:28:42.206Z,1008.26
2017-02-19T10:29:51.976Z,1008.25
2017-02-19T10:31:01.784Z,1008.28
2017-02-19T10:32:12.862Z,1008.22
2017-02-19T10:33:22.618Z,1008.19
2017-02-19T10:34:32.371Z,1008.23
2017-02-19T10:35:43.000Z,1008.23
2017-02-19T10:36:53.697Z,1008.23
2017-02-19T10:38:03.448Z,1008.25
2017-02-19T10:39:13.200Z,1008.22
2017-02-19T10:40:22.953Z,1008.24
2017-02-19T10:41:32.726Z,1008.24
2017-02-19T10:42:42.635Z,1008.29
2017-02-19T10:43:52.405Z,1008.23
2017-02-19T10:45:01.714Z,1008.18
2017-02-19T10:46:11.904Z,1008.17
2017-02-19T10:47:21.219Z,1008.14
2017-02-19T10:48:30.585Z,1008.14
2017-02-19T10:49:40.370Z,1008.08
2017-02-19T10:50:50.132Z,1008.11
2017-02-19T10:52:00.313Z,1008.15
2017-02-19T10:53:11.000Z,1008.12
2017-02-19T10:54:21.255Z,1008.1
2017-02-19T10:55:31.025Z,1008.07
2017-02-19T10:56:41.658Z,1008.06
2017-02-19T10:57:50.971Z,1008.03
2017-02-19T10:59:01.608Z,1007.98
2017-02-19T11:00:11.861Z,1008.02
2017-02-19T11:01:21.618Z,1007.96
2017-02-19T11:02:32.247Z,1007.98
2017-02-19T11:03:42.005Z,1007.94
2017-02-19T11:04:51.318Z,1007.94
2017-02-19T11:06:01.587Z,1007.93
2017-02-19T11:07:12.246Z,1007.91
2017-02-19T11:08:22.016Z,1007.92
2017-02-19T11:09:32.210Z,1007.89
2017-02-19T11:10:42.841Z,1007.93
2017-02-19T11:11:52.672Z,1007.92
2017-02-19T11:13:02.451Z,1007.88
2017-02-19T11:14:12.652Z,1007.88
2017-02-19T11:15:22.426Z,1007.93
2017-02-19T11:16:32.165Z,1007.95
2017-02-19T11:17:42.622Z,1007.99
2017-02-19T11:18:52.368Z,1007.98
2017-02-19T11:20:02.119Z,1007.97
2017-02-19T11:21:11.470Z,1007.99
2017-02-19T11:22:22.537Z,1007.97
2017-02-19T11:23:32.461Z,1008.01
2017-02-19T11:24:43.115Z,1007.96
2017-02-19T11:25:52.871Z,1007.94
2017-02-19T11:27:02.193Z,1007.9
2017-02-19T11:28:11.961Z,1007.88
2017-02-19T11:29:21.786Z,1007.87
2017-02-19T11:30:31.531Z,1007.91
2017-02-19T11:31:41.285Z,1007.85
2017-02-19T11:32:51.078Z,1007.86
2017-02-19T11:34:01.707Z,1007.85
2017-02-19T11:35:11.948Z,1007.84
2017-02-19T11:36:21.710Z,1007.84
2017-02-19T11:37:31.038Z,1007.78
2017-02-19T11:38:40.803Z,1007.79
2017-02-19T11:39:50.546Z,1007.75
2017-02-19T11:41:00.499Z,1007.74
2017-02-19T11:42:09.815Z,1007.71
2017-02-19T11:43:20.012Z,1007.72
2017-02-19T11:44:30.213Z,1007.67
2017-02-19T11:45:39.978Z,1007.63
2017-02-19T11:46:49.783Z,1007.66
2017-02-19T11:47:59.546Z,1007.69
2017-02-19T11:49:08.866Z,1007.66
2017-02-19T11:50:18.629Z,1007.67
2017-02-19T11:51:28.400Z,1007.66
2017-02-19T11:52:38.641Z,1007.61
2017-02-19T11:53:48.404Z,1007.5
2017-02-19T11:54:57.728Z,1007.5
2017-02-19T11:56:07.909Z,1007.54
2017-02-19T11:57:18.103Z,1007.52
2017-02-19T11:58:27.467Z,1007.47
2017-02-19T11:59:37.680Z,1007.52
2017-02-19T12:00:47.873Z,1007.51
2017-02-19T12:01:57.199Z,1007.48
2017-02-19T12:03:06.543Z,1007.45
2017-02-19T12:04:16.349Z,1007.44
2017-02-19T12:05:26.576Z,1007.45
2017-02-19T12:06:36.755Z,1007.42
2017-02-19T12:07:46.524Z,1007.42
2017-02-19T12:08:56.306Z,1007.38
2017-02-19T12:10:05.819Z,1007.37
2017-02-19T12:11:16.003Z,1007.37
2017-02-19T12:12:26.202Z,1007.35
2017-02-19T12:13:35.944Z,1007.3
2017-02-19T12:14:45.303Z,1007.29
2017-02-19T12:15:55.548Z,1007.28
2017-02-19T12:17:05.739Z,1007.27
2017-02-19T12:18:15.067Z,1007.23
2017-02-19T12:19:25.693Z,1007.26
2017-02-19T12:20:35.011Z,1007.23
2017-02-19T12:21:44.872Z,1007.21
2017-02-19T12:22:54.639Z,1007.27
2017-02-19T12:24:04.405Z,1007.25
2017-02-19T12:25:13.725Z,1007.19
2017-02-19T12:26:23.483Z,1007.25
2017-02-19T12:27:32.856Z,1007.23
2017-02-19T12:28:42.601Z,1007.26
2017-02-19T12:29:52.796Z,1007.14
2017-02-19T12:31:02.115Z,1007.15
2017-02-19T12:32:12.330Z,1007.18
2017-02-19T12:33:22.591Z,1007.17
2017-02-19T12:34:32.363Z,1007.22
2017-02-19T12:35:41.696Z,1007.15
2017-02-19T12:36:51.494Z,1007.11
2017-02-19T12:38:01.254Z,1007.11
2017-02-19T12:39:11.484Z,1007.07
2017-02-19T12:40:20.790Z,1007.02
2017-02-19T12:41:30.122Z,1007.02
2017-02-19T12:42:39.867Z,1006.97
2017-02-19T12:43:50.075Z,1007.01
2017-02-19T12:44:59.598Z,1006.93
2017-02-19T12:46:09.343Z,1006.91
2017-02-19T12:47:19.088Z,1006.86
2017-02-19T12:48:28.856Z,1006.86
2017-02-19T12:49:38.596Z,1006.86
2017-02-19T12:50:48.391Z,1006.8
2017-02-19T12:51:59.466Z,1006.9
2017-02-19T12:53:08.787Z,1006.85
2017-02-19T12:54:18.088Z,1006.83
2017-02-19T12:55:27.876Z,1006.87
2017-02-19T12:56:37.683Z,1006.86
2017-02-19T12:57:47.443Z,1006.86
2017-02-19T12:58:58.071Z,1006.85
2017-02-19T13:00:07.829Z,1006.83
2017-02-19T13:01:17.602Z,1006.85
2017-02-19T13:02:26.977Z,1006.86
2017-02-19T13:03:36.752Z,1006.75
2017-02-19T13:04:46.949Z,1006.74
2017-02-19T13:05:56.711Z,1006.79
2017-02-19T13:07:06.460Z,1006.71
2017-02-19T13:08:16.265Z,1006.71
2017-02-19T13:09:26.904Z,1006.63
2017-02-19T13:10:36.217Z,1006.64
2017-02-19T13:11:45.976Z,1006.66
2017-02-19T13:12:55.726Z,1006.63
2017-02-19T13:14:05.548Z,1006.62
2017-02-19T13:15:15.744Z,1006.61
2017-02-19T13:16:25.514Z,1006.6
2017-02-19T13:17:34.820Z,1006.62
2017-02-19T13:18:44.121Z,1006.63
2017-02-19T13:19:53.485Z,1006.57
2017-02-19T13:21:04.142Z,1006.55
2017-02-19T13:22:14.329Z,1006.52
2017-02-19T13:23:24.980Z,1006.49
2017-02-19T13:24:35.166Z,1006.46
2017-02-19T13:25:44.680Z,1006.43
2017-02-19T13:26:53.984Z,1006.43
2017-02-19T13:28:03.333Z,1006.44
2017-02-19T13:29:13.539Z,1006.49
2017-02-19T13:30:23.312Z,1006.46
2017-02-19T13:31:33.105Z,1006.42
2017-02-19T13:32:43.739Z,1006.47
2017-02-19T13:33:53.493Z,1006.51
2017-02-19T13:35:02.806Z,1006.43
2017-02-19T13:36:12.569Z,1006.41
2017-02-19T13:37:22.404Z,1006.43
2017-02-19T13:38:32.184Z,1006.4
2017-02-19T13:39:41.945Z,1006.44
2017-02-19T13:40:52.142Z,1006.39
2017-02-19T13:42:02.764Z,1006.45
2017-02-19T13:43:12.557Z,1006.43
2017-02-19T13:44:22.310Z,1006.43
2017-02-19T13:45:32.069Z,1006.44
2017-02-19T13:46:41.870Z,1006.42
2017-02-19T13:47:51.181Z,1006.4
2017-02-19T13:49:01.416Z,1006.43
2017-02-19T13:50:11.640Z,1006.43
2017-02-19T13:51:21.404Z,1006.39
2017-02-19T13:52:31.627Z,1006.46
2017-02-19T13:53:41.379Z,1006.44
2017-02-19T13:54:51.648Z,1006.42
2017-02-19T13:56:01.857Z,1006.46
2017-02-19T13:57:12.064Z,1006.42
2017-02-19T13:58:21.820Z,1006.48
2017-02-19T13:59:32.473Z,1006.51
2017-02-19T14:00:42.286Z,1006.45
2017-02-19T14:01:51.597Z,1006.54
2017-02-19T14:03:00.913Z,1006.47
2017-02-19T14:04:10.658Z,1006.51
2017-02-19T14:05:20.843Z,1006.46
2017-02-19T14:06:31.553Z,1006.49
2017-02-19T14:07:41.771Z,1006.49
2017-02-19T14:08:51.092Z,1006.48